sensor_id;sensor_type;location;lat;lon;timestamp;P1;durP1;ratioP1;P2;durP2;ratioP2
18082;SDS011;9168;51.194;6.840;2022-09-29T00:00:23;13.32;;;8.45;;
18082;SDS011;9168;51.194;6.840;2022-09-29T00:02:51;13.82;;;8.35;;
18082;SDS011;9168;51.194;6.840;2022-09-29T00:05:17;13.25;;;8.43;;
18082;SDS011;9168;51.194;6.840;2022-09-29T00:07:44;15.60;;;8.63;;
18082;SDS011;9168;51.194;6.840;2022-09-29T00:10:11;13.55;;;8.27;;
18082;SDS011;9168;51.194;6.840;2022-09-29T00:12:40;19.27;;;9.60;;
18082;SDS011;9168;51.194;6.840;2022-09-29T00:15:07;14.13;;;8.90;;
18082;SDS011;9168;51.194;6.840;2022-09-29T00:17:34;12.90;;;8.48;;
18082;SDS011;9168;51.194;6.840;2022-09-29T00:20:01;14.07;;;8.07;;
18082;SDS011;9168;51.194;6.840;2022-09-29T00:22:28;15.25;;;8.60;;
18082;SDS011;9168;51.194;6.840;2022-09-29T00:24:55;13.93;;;8.60;;
18082;SDS011;9168;51.194;6.840;2022-09-29T00:27:22;11.23;;;7.97;;
18082;SDS011;9168;51.194;6.840;2022-09-29T00:29:50;18.85;;;7.68;;
18082;SDS011;9168;51.194;6.840;2022-09-29T00:32:17;12.35;;;7.60;;
18082;SDS011;9168;51.194;6.840;2022-09-29T00:34:44;11.82;;;8.07;;
18082;SDS011;9168;51.194;6.840;2022-09-29T00:37:11;12.63;;;7.63;;
18082;SDS011;9168;51.194;6.840;2022-09-29T00:39:38;13.30;;;7.85;;
18082;SDS011;9168;51.194;6.840;2022-09-29T00:42:05;12.23;;;7.35;;
18082;SDS011;9168;51.194;6.840;2022-09-29T00:44:53;15.07;;;7.93;;
18082;SDS011;9168;51.194;6.840;2022-09-29T00:47:25;10.98;;;7.32;;
18082;SDS011;9168;51.194;6.840;2022-09-29T00:49:54;12.00;;;7.70;;
18082;SDS011;9168;51.194;6.840;2022-09-29T00:52:25;15.10;;;8.05;;
18082;SDS011;9168;51.194;6.840;2022-09-29T00:54:55;10.95;;;8.02;;
18082;SDS011;9168;51.194;6.840;2022-09-29T00:57:27;15.00;;;8.48;;
18082;SDS011;9168;51.194;6.840;2022-09-29T00:59:58;12.57;;;8.50;;
18082;SDS011;9168;51.194;6.840;2022-09-29T01:02:27;13.48;;;8.70;;
18082;SDS011;9168;51.194;6.840;2022-09-29T01:04:59;13.85;;;7.93;;
18082;SDS011;9168;51.194;6.840;2022-09-29T01:07:28;13.90;;;8.27;;
18082;SDS011;9168;51.194;6.840;2022-09-29T01:09:55;13.07;;;8.30;;
18082;SDS011;9168;51.194;6.840;2022-09-29T01:12:23;15.52;;;7.88;;
18082;SDS011;9168;51.194;6.840;2022-09-29T01:14:50;12.30;;;7.55;;
18082;SDS011;9168;51.194;6.840;2022-09-29T01:17:20;12.68;;;7.25;;
18082;SDS011;9168;51.194;6.840;2022-09-29T01:19:50;14.60;;;7.40;;
18082;SDS011;9168;51.194;6.840;2022-09-29T01:22:30;13.63;;;7.15;;
18082;SDS011;9168;51.194;6.840;2022-09-29T01:25:29;10.73;;;6.93;;
18082;SDS011;9168;51.194;6.840;2022-09-29T01:31:13;16.52;;;7.30;;
18082;SDS011;9168;51.194;6.840;2022-09-29T01:33:50;14.35;;;7.40;;
18082;SDS011;9168;51.194;6.840;2022-09-29T01:36:26;14.63;;;7.10;;
18082;SDS011;9168;51.194;6.840;2022-09-29T01:39:02;15.80;;;7.55;;
18082;SDS011;9168;51.194;6.840;2022-09-29T01:41:37;10.93;;;6.87;;
18082;SDS011;9168;51.194;6.840;2022-09-29T01:44:08;12.07;;;7.43;;
18082;SDS011;9168;51.194;6.840;2022-09-29T01:46:43;14.20;;;7.55;;
18082;SDS011;9168;51.194;6.840;2022-09-29T01:49:13;14.30;;;6.57;;
18082;SDS011;9168;51.194;6.840;2022-09-29T01:51:43;12.02;;;7.00;;
18082;SDS011;9168;51.194;6.840;2022-09-29T01:54:16;14.00;;;7.30;;
18082;SDS011;9168;51.194;6.840;2022-09-29T01:56:49;11.57;;;6.87;;
18082;SDS011;9168;51.194;6.840;2022-09-29T01:59:19;10.50;;;7.00;;
18082;SDS011;9168;51.194;6.840;2022-09-29T02:01:52;13.33;;;6.77;;
18082;SDS011;9168;51.194;6.840;2022-09-29T02:04:24;11.40;;;6.60;;
18082;SDS011;9168;51.194;6.840;2022-09-29T02:06:55;13.10;;;6.70;;
18082;SDS011;9168;51.194;6.840;2022-09-29T02:09:29;10.00;;;6.83;;
18082;SDS011;9168;51.194;6.840;2022-09-29T02:12:00;12.67;;;7.27;;
18082;SDS011;9168;51.194;6.840;2022-09-29T02:14:29;12.90;;;6.75;;
18082;SDS011;9168;51.194;6.840;2022-09-29T02:17:04;11.87;;;7.90;;
18082;SDS011;9168;51.194;6.840;2022-09-29T02:19:36;12.30;;;7.03;;
18082;SDS011;9168;51.194;6.840;2022-09-29T02:22:05;15.87;;;8.27;;
18082;SDS011;9168;51.194;6.840;2022-09-29T02:24:32;13.23;;;7.23;;
18082;SDS011;9168;51.194;6.840;2022-09-29T02:26:59;12.50;;;7.17;;
18082;SDS011;9168;51.194;6.840;2022-09-29T02:29:28;11.32;;;7.00;;
18082;SDS011;9168;51.194;6.840;2022-09-29T02:31:55;12.50;;;6.70;;
18082;SDS011;9168;51.194;6.840;2022-09-29T02:34:27;11.23;;;6.50;;
18082;SDS011;9168;51.194;6.840;2022-09-29T02:36:58;12.07;;;7.22;;
18082;SDS011;9168;51.194;6.840;2022-09-29T02:39:33;12.73;;;6.73;;
18082;SDS011;9168;51.194;6.840;2022-09-29T02:42:08;11.48;;;6.47;;
18082;SDS011;9168;51.194;6.840;2022-09-29T02:44:50;11.77;;;6.90;;
18082;SDS011;9168;51.194;6.840;2022-09-29T02:47:36;9.90;;;6.38;;
18082;SDS011;9168;51.194;6.840;2022-09-29T02:50:22;12.18;;;7.32;;
18082;SDS011;9168;51.194;6.840;2022-09-29T02:52:59;11.35;;;6.55;;
18082;SDS011;9168;51.194;6.840;2022-09-29T02:55:34;13.20;;;6.95;;
18082;SDS011;9168;51.194;6.840;2022-09-29T02:58:09;12.27;;;6.63;;
18082;SDS011;9168;51.194;6.840;2022-09-29T03:00:39;11.88;;;6.82;;
18082;SDS011;9168;51.194;6.840;2022-09-29T03:03:08;9.68;;;6.30;;
18082;SDS011;9168;51.194;6.840;2022-09-29T03:05:36;13.57;;;7.00;;
18082;SDS011;9168;51.194;6.840;2022-09-29T03:08:03;11.73;;;6.70;;
18082;SDS011;9168;51.194;6.840;2022-09-29T03:10:30;12.60;;;6.97;;
18082;SDS011;9168;51.194;6.840;2022-09-29T03:12:57;12.63;;;6.90;;
18082;SDS011;9168;51.194;6.840;2022-09-29T03:15:24;9.33;;;6.70;;
18082;SDS011;9168;51.194;6.840;2022-09-29T03:17:53;14.15;;;6.78;;
18082;SDS011;9168;51.194;6.840;2022-09-29T03:20:21;15.15;;;6.53;;
18082;SDS011;9168;51.194;6.840;2022-09-29T03:22:49;19.23;;;7.50;;
18082;SDS011;9168;51.194;6.840;2022-09-29T03:25:20;11.20;;;6.60;;
18082;SDS011;9168;51.194;6.840;2022-09-29T03:27:48;13.48;;;7.47;;
18082;SDS011;9168;51.194;6.840;2022-09-29T03:30:15;10.83;;;6.90;;
18082;SDS011;9168;51.194;6.840;2022-09-29T03:32:43;15.00;;;7.83;;
18082;SDS011;9168;51.194;6.840;2022-09-29T03:35:09;11.77;;;6.57;;
18082;SDS011;9168;51.194;6.840;2022-09-29T03:37:37;12.10;;;7.23;;
18082;SDS011;9168;51.194;6.840;2022-09-29T03:40:06;10.23;;;6.88;;
18082;SDS011;9168;51.194;6.840;2022-09-29T03:42:33;11.05;;;7.30;;
18082;SDS011;9168;51.194;6.840;2022-09-29T03:45:00;12.53;;;6.37;;
18082;SDS011;9168;51.194;6.840;2022-09-29T03:47:27;14.25;;;7.28;;
18082;SDS011;9168;51.194;6.840;2022-09-29T03:49:54;10.07;;;6.57;;
18082;SDS011;9168;51.194;6.840;2022-09-29T03:52:21;12.17;;;7.23;;
18082;SDS011;9168;51.194;6.840;2022-09-29T03:54:48;12.67;;;6.90;;
18082;SDS011;9168;51.194;6.840;2022-09-29T03:57:16;12.40;;;7.37;;
18082;SDS011;9168;51.194;6.840;2022-09-29T03:59:43;16.27;;;7.32;;
18082;SDS011;9168;51.194;6.840;2022-09-29T04:02:10;12.13;;;7.65;;
18082;SDS011;9168;51.194;6.840;2022-09-29T04:04:36;14.40;;;7.35;;
18082;SDS011;9168;51.194;6.840;2022-09-29T04:07:03;15.52;;;8.05;;
18082;SDS011;9168;51.194;6.840;2022-09-29T04:09:30;15.15;;;8.38;;
18082;SDS011;9168;51.194;6.840;2022-09-29T04:11:57;14.90;;;8.27;;
18082;SDS011;9168;51.194;6.840;2022-09-29T04:14:25;12.95;;;8.55;;
18082;SDS011;9168;51.194;6.840;2022-09-29T04:16:52;15.10;;;8.43;;
18082;SDS011;9168;51.194;6.840;2022-09-29T04:19:19;14.10;;;7.97;;
18082;SDS011;9168;51.194;6.840;2022-09-29T04:21:46;11.73;;;7.63;;
18082;SDS011;9168;51.194;6.840;2022-09-29T04:24:12;12.00;;;7.13;;
18082;SDS011;9168;51.194;6.840;2022-09-29T04:26:39;12.30;;;7.45;;
18082;SDS011;9168;51.194;6.840;2022-09-29T04:29:06;13.05;;;7.78;;
18082;SDS011;9168;51.194;6.840;2022-09-29T04:31:34;15.50;;;7.90;;
18082;SDS011;9168;51.194;6.840;2022-09-29T04:34:01;15.67;;;7.83;;
18082;SDS011;9168;51.194;6.840;2022-09-29T04:36:28;13.25;;;7.63;;
18082;SDS011;9168;51.194;6.840;2022-09-29T04:38:55;11.38;;;7.32;;
18082;SDS011;9168;51.194;6.840;2022-09-29T04:41:22;12.40;;;7.30;;
18082;SDS011;9168;51.194;6.840;2022-09-29T04:43:49;12.65;;;7.38;;
18082;SDS011;9168;51.194;6.840;2022-09-29T04:46:16;9.27;;;6.40;;
18082;SDS011;9168;51.194;6.840;2022-09-29T04:48:44;10.02;;;6.68;;
18082;SDS011;9168;51.194;6.840;2022-09-29T04:51:11;9.73;;;6.65;;
18082;SDS011;9168;51.194;6.840;2022-09-29T04:53:37;11.50;;;7.27;;
18082;SDS011;9168;51.194;6.840;2022-09-29T04:56:05;11.80;;;7.25;;
18082;SDS011;9168;51.194;6.840;2022-09-29T04:58:33;11.63;;;7.50;;
18082;SDS011;9168;51.194;6.840;2022-09-29T05:01:03;17.73;;;8.00;;
18082;SDS011;9168;51.194;6.840;2022-09-29T05:03:31;12.80;;;7.77;;
18082;SDS011;9168;51.194;6.840;2022-09-29T05:06:00;13.65;;;7.28;;
18082;SDS011;9168;51.194;6.840;2022-09-29T05:08:27;13.33;;;7.60;;
18082;SDS011;9168;51.194;6.840;2022-09-29T05:10:54;13.13;;;7.35;;
18082;SDS011;9168;51.194;6.840;2022-09-29T05:13:20;15.13;;;8.27;;
18082;SDS011;9168;51.194;6.840;2022-09-29T05:15:48;15.50;;;8.18;;
18082;SDS011;9168;51.194;6.840;2022-09-29T05:18:20;15.93;;;8.73;;
18082;SDS011;9168;51.194;6.840;2022-09-29T05:20:47;16.52;;;9.60;;
18082;SDS011;9168;51.194;6.840;2022-09-29T05:23:15;17.02;;;9.02;;
18082;SDS011;9168;51.194;6.840;2022-09-29T05:25:43;17.43;;;9.67;;
18082;SDS011;9168;51.194;6.840;2022-09-29T05:28:10;17.30;;;9.97;;
18082;SDS011;9168;51.194;6.840;2022-09-29T05:30:39;18.60;;;9.23;;
18082;SDS011;9168;51.194;6.840;2022-09-29T05:33:06;17.92;;;8.93;;
18082;SDS011;9168;51.194;6.840;2022-09-29T05:35:33;16.70;;;8.27;;
18082;SDS011;9168;51.194;6.840;2022-09-29T05:38:00;15.63;;;9.45;;
18082;SDS011;9168;51.194;6.840;2022-09-29T05:40:28;20.02;;;10.20;;
18082;SDS011;9168;51.194;6.840;2022-09-29T05:42:55;14.23;;;9.77;;
18082;SDS011;9168;51.194;6.840;2022-09-29T05:45:24;15.17;;;9.87;;
18082;SDS011;9168;51.194;6.840;2022-09-29T05:47:51;15.23;;;10.10;;
18082;SDS011;9168;51.194;6.840;2022-09-29T05:50:18;22.83;;;9.90;;
18082;SDS011;9168;51.194;6.840;2022-09-29T05:52:46;17.33;;;9.97;;
18082;SDS011;9168;51.194;6.840;2022-09-29T05:55:13;12.67;;;9.23;;
18082;SDS011;9168;51.194;6.840;2022-09-29T05:57:44;21.52;;;10.00;;
18082;SDS011;9168;51.194;6.840;2022-09-29T06:00:13;17.27;;;10.47;;
18082;SDS011;9168;51.194;6.840;2022-09-29T06:02:40;19.70;;;9.37;;
18082;SDS011;9168;51.194;6.840;2022-09-29T06:05:07;15.40;;;9.13;;
18082;SDS011;9168;51.194;6.840;2022-09-29T06:07:34;21.10;;;10.13;;
18082;SDS011;9168;51.194;6.840;2022-09-29T06:10:01;15.00;;;9.38;;
18082;SDS011;9168;51.194;6.840;2022-09-29T06:12:28;18.73;;;9.97;;
18082;SDS011;9168;51.194;6.840;2022-09-29T06:15:01;14.57;;;9.60;;
18082;SDS011;9168;51.194;6.840;2022-09-29T06:17:28;15.05;;;9.23;;
18082;SDS011;9168;51.194;6.840;2022-09-29T06:19:55;16.73;;;10.00;;
18082;SDS011;9168;51.194;6.840;2022-09-29T06:22:22;16.08;;;9.90;;
18082;SDS011;9168;51.194;6.840;2022-09-29T06:24:49;19.08;;;9.95;;
18082;SDS011;9168;51.194;6.840;2022-09-29T06:27:16;18.63;;;9.85;;
18082;SDS011;9168;51.194;6.840;2022-09-29T06:29:43;16.63;;;10.48;;
18082;SDS011;9168;51.194;6.840;2022-09-29T06:32:11;20.60;;;10.40;;
18082;SDS011;9168;51.194;6.840;2022-09-29T06:34:38;20.30;;;11.20;;
18082;SDS011;9168;51.194;6.840;2022-09-29T06:37:25;18.70;;;10.88;;
18082;SDS011;9168;51.194;6.840;2022-09-29T06:40:00;18.70;;;10.20;;
18082;SDS011;9168;51.194;6.840;2022-09-29T06:42:27;19.77;;;10.90;;
18082;SDS011;9168;51.194;6.840;2022-09-29T06:44:54;17.10;;;10.27;;
18082;SDS011;9168;51.194;6.840;2022-09-29T06:47:22;24.25;;;10.50;;
18082;SDS011;9168;51.194;6.840;2022-09-29T06:49:49;18.17;;;10.85;;
18082;SDS011;9168;51.194;6.840;2022-09-29T06:52:16;17.80;;;10.10;;
18082;SDS011;9168;51.194;6.840;2022-09-29T06:54:43;16.58;;;10.60;;
18082;SDS011;9168;51.194;6.840;2022-09-29T06:57:11;21.13;;;10.87;;
18082;SDS011;9168;51.194;6.840;2022-09-29T06:59:38;17.30;;;10.95;;
18082;SDS011;9168;51.194;6.840;2022-09-29T07:02:05;21.13;;;11.35;;
18082;SDS011;9168;51.194;6.840;2022-09-29T07:04:33;23.95;;;9.38;;
18082;SDS011;9168;51.194;6.840;2022-09-29T07:07:00;18.07;;;10.03;;
18082;SDS011;9168;51.194;6.840;2022-09-29T07:09:27;20.30;;;9.37;;
18082;SDS011;9168;51.194;6.840;2022-09-29T07:11:53;17.20;;;9.40;;
18082;SDS011;9168;51.194;6.840;2022-09-29T07:14:21;20.20;;;9.80;;
18082;SDS011;9168;51.194;6.840;2022-09-29T07:16:49;20.38;;;9.77;;
18082;SDS011;9168;51.194;6.840;2022-09-29T07:19:17;15.65;;;9.30;;
18082;SDS011;9168;51.194;6.840;2022-09-29T07:21:45;17.65;;;10.13;;
18082;SDS011;9168;51.194;6.840;2022-09-29T07:24:13;15.00;;;8.98;;
18082;SDS011;9168;51.194;6.840;2022-09-29T07:26:40;16.15;;;9.93;;
18082;SDS011;9168;51.194;6.840;2022-09-29T07:29:07;16.67;;;9.98;;
18082;SDS011;9168;51.194;6.840;2022-09-29T07:31:34;16.63;;;10.13;;
18082;SDS011;9168;51.194;6.840;2022-09-29T07:34:01;17.88;;;9.55;;
18082;SDS011;9168;51.194;6.840;2022-09-29T07:36:28;19.58;;;9.88;;
18082;SDS011;9168;51.194;6.840;2022-09-29T07:38:56;15.98;;;9.85;;
18082;SDS011;9168;51.194;6.840;2022-09-29T07:41:23;16.08;;;10.10;;
18082;SDS011;9168;51.194;6.840;2022-09-29T07:43:52;21.52;;;10.48;;
18082;SDS011;9168;51.194;6.840;2022-09-29T07:46:19;16.15;;;9.93;;
18082;SDS011;9168;51.194;6.840;2022-09-29T07:48:46;18.40;;;10.88;;
18082;SDS011;9168;51.194;6.840;2022-09-29T07:51:13;21.17;;;10.32;;
18082;SDS011;9168;51.194;6.840;2022-09-29T07:53:41;20.73;;;10.77;;
18082;SDS011;9168;51.194;6.840;2022-09-29T07:56:10;18.83;;;11.05;;
18082;SDS011;9168;51.194;6.840;2022-09-29T07:58:38;16.83;;;11.25;;
18082;SDS011;9168;51.194;6.840;2022-09-29T08:01:06;20.52;;;10.57;;
18082;SDS011;9168;51.194;6.840;2022-09-29T08:03:36;21.55;;;10.63;;
18082;SDS011;9168;51.194;6.840;2022-09-29T08:06:04;22.95;;;10.23;;
18082;SDS011;9168;51.194;6.840;2022-09-29T08:08:31;23.35;;;10.52;;
18082;SDS011;9168;51.194;6.840;2022-09-29T08:11:01;19.80;;;11.50;;
18082;SDS011;9168;51.194;6.840;2022-09-29T08:13:30;21.85;;;10.52;;
18082;SDS011;9168;51.194;6.840;2022-09-29T08:16:00;16.48;;;10.50;;
18082;SDS011;9168;51.194;6.840;2022-09-29T08:18:28;22.80;;;10.50;;
18082;SDS011;9168;51.194;6.840;2022-09-29T08:20:55;16.67;;;9.98;;
18082;SDS011;9168;51.194;6.840;2022-09-29T08:23:22;17.80;;;11.10;;
18082;SDS011;9168;51.194;6.840;2022-09-29T08:25:49;20.75;;;11.05;;
18082;SDS011;9168;51.194;6.840;2022-09-29T08:28:23;20.08;;;10.10;;
18082;SDS011;9168;51.194;6.840;2022-09-29T08:30:51;18.90;;;9.80;;
18082;SDS011;9168;51.194;6.840;2022-09-29T08:33:18;15.27;;;9.85;;
18082;SDS011;9168;51.194;6.840;2022-09-29T08:35:45;19.35;;;10.48;;
18082;SDS011;9168;51.194;6.840;2022-09-29T08:38:20;20.13;;;10.93;;
18082;SDS011;9168;51.194;6.840;2022-09-29T08:40:46;18.60;;;11.00;;
18082;SDS011;9168;51.194;6.840;2022-09-29T08:43:14;20.15;;;10.50;;
18082;SDS011;9168;51.194;6.840;2022-09-29T08:45:46;21.92;;;11.88;;
18082;SDS011;9168;51.194;6.840;2022-09-29T08:48:25;19.13;;;10.73;;
18082;SDS011;9168;51.194;6.840;2022-09-29T08:50:57;21.40;;;10.32;;
18082;SDS011;9168;51.194;6.840;2022-09-29T08:53:27;20.38;;;10.93;;
18082;SDS011;9168;51.194;6.840;2022-09-29T08:56:00;17.52;;;11.10;;
18082;SDS011;9168;51.194;6.840;2022-09-29T08:58:30;19.65;;;11.95;;
18082;SDS011;9168;51.194;6.840;2022-09-29T09:04:01;21.17;;;11.38;;
18082;SDS011;9168;51.194;6.840;2022-09-29T09:06:54;21.40;;;11.02;;
18082;SDS011;9168;51.194;6.840;2022-09-29T09:09:32;18.40;;;10.82;;
18082;SDS011;9168;51.194;6.840;2022-09-29T09:15:16;20.10;;;11.02;;
18082;SDS011;9168;51.194;6.840;2022-09-29T09:17:58;24.33;;;10.82;;
18082;SDS011;9168;51.194;6.840;2022-09-29T09:20:39;20.45;;;10.13;;
18082;SDS011;9168;51.194;6.840;2022-09-29T09:23:12;21.55;;;10.18;;
18082;SDS011;9168;51.194;6.840;2022-09-29T09:25:45;22.90;;;10.65;;
18082;SDS011;9168;51.194;6.840;2022-09-29T09:28:17;20.80;;;11.15;;
18082;SDS011;9168;51.194;6.840;2022-09-29T09:30:48;19.25;;;11.00;;
18082;SDS011;9168;51.194;6.840;2022-09-29T09:33:22;25.05;;;10.38;;
18082;SDS011;9168;51.194;6.840;2022-09-29T09:35:57;21.83;;;10.45;;
18082;SDS011;9168;51.194;6.840;2022-09-29T09:38:33;25.23;;;10.95;;
18082;SDS011;9168;51.194;6.840;2022-09-29T09:41:09;20.83;;;10.32;;
18082;SDS011;9168;51.194;6.840;2022-09-29T09:43:39;20.08;;;10.15;;
18082;SDS011;9168;51.194;6.840;2022-09-29T09:46:10;21.75;;;10.20;;
18082;SDS011;9168;51.194;6.840;2022-09-29T09:48:44;20.27;;;11.23;;
18082;SDS011;9168;51.194;6.840;2022-09-29T09:54:11;19.42;;;10.57;;
18082;SDS011;9168;51.194;6.840;2022-09-29T09:56:50;23.02;;;10.30;;
18082;SDS011;9168;51.194;6.840;2022-09-29T09:59:34;22.23;;;10.45;;
18082;SDS011;9168;51.194;6.840;2022-09-29T10:02:12;16.90;;;9.80;;
18082;SDS011;9168;51.194;6.840;2022-09-29T10:04:43;22.38;;;9.43;;
18082;SDS011;9168;51.194;6.840;2022-09-29T10:07:12;16.10;;;9.60;;
18082;SDS011;9168;51.194;6.840;2022-09-29T10:09:39;21.95;;;10.65;;
18082;SDS011;9168;51.194;6.840;2022-09-29T10:12:07;17.13;;;9.50;;
18082;SDS011;9168;51.194;6.840;2022-09-29T10:14:39;18.52;;;9.75;;
18082;SDS011;9168;51.194;6.840;2022-09-29T10:17:14;18.65;;;9.52;;
18082;SDS011;9168;51.194;6.840;2022-09-29T10:19:51;14.50;;;8.32;;
18082;SDS011;9168;51.194;6.840;2022-09-29T10:22:21;13.13;;;7.32;;
18082;SDS011;9168;51.194;6.840;2022-09-29T10:24:50;18.98;;;8.93;;
18082;SDS011;9168;51.194;6.840;2022-09-29T10:27:21;14.40;;;8.35;;
18082;SDS011;9168;51.194;6.840;2022-09-29T10:29:50;18.85;;;8.38;;
18082;SDS011;9168;51.194;6.840;2022-09-29T10:32:21;14.35;;;9.10;;
18082;SDS011;9168;51.194;6.840;2022-09-29T10:35:02;16.48;;;8.35;;
18082;SDS011;9168;51.194;6.840;2022-09-29T10:37:34;14.57;;;8.68;;
18082;SDS011;9168;51.194;6.840;2022-09-29T10:40:08;13.70;;;7.57;;
18082;SDS011;9168;51.194;6.840;2022-09-29T10:42:42;21.60;;;8.60;;
18082;SDS011;9168;51.194;6.840;2022-09-29T10:45:14;16.05;;;8.57;;
18082;SDS011;9168;51.194;6.840;2022-09-29T10:47:44;21.85;;;8.07;;
18082;SDS011;9168;51.194;6.840;2022-09-29T10:50:14;16.58;;;8.55;;
18082;SDS011;9168;51.194;6.840;2022-09-29T10:52:46;15.00;;;8.85;;
18082;SDS011;9168;51.194;6.840;2022-09-29T10:55:17;11.63;;;7.40;;
18082;SDS011;9168;51.194;6.840;2022-09-29T10:57:46;21.63;;;8.25;;
18082;SDS011;9168;51.194;6.840;2022-09-29T11:00:26;19.45;;;8.90;;
18082;SDS011;9168;51.194;6.840;2022-09-29T11:03:01;16.98;;;8.82;;
18082;SDS011;9168;51.194;6.840;2022-09-29T11:05:32;15.02;;;8.40;;
18082;SDS011;9168;51.194;6.840;2022-09-29T11:08:02;18.63;;;7.53;;
18082;SDS011;9168;51.194;6.840;2022-09-29T11:10:29;16.02;;;6.45;;
18082;SDS011;9168;51.194;6.840;2022-09-29T11:13:02;16.27;;;6.20;;
18082;SDS011;9168;51.194;6.840;2022-09-29T11:16:02;10.13;;;5.15;;
18082;SDS011;9168;51.194;6.840;2022-09-29T11:18:31;13.68;;;5.57;;
18082;SDS011;9168;51.194;6.840;2022-09-29T11:21:04;12.13;;;4.78;;
18082;SDS011;9168;51.194;6.840;2022-09-29T11:23:47;11.50;;;4.60;;
18082;SDS011;9168;51.194;6.840;2022-09-29T11:26:23;8.80;;;4.35;;
18082;SDS011;9168;51.194;6.840;2022-09-29T11:31:53;7.40;;;3.40;;
18082;SDS011;9168;51.194;6.840;2022-09-29T11:34:41;6.78;;;3.55;;
18082;SDS011;9168;51.194;6.840;2022-09-29T11:37:21;8.82;;;4.20;;
18082;SDS011;9168;51.194;6.840;2022-09-29T11:40:00;11.60;;;4.93;;
18082;SDS011;9168;51.194;6.840;2022-09-29T11:42:36;9.82;;;4.22;;
18082;SDS011;9168;51.194;6.840;2022-09-29T11:45:12;12.30;;;4.93;;
18082;SDS011;9168;51.194;6.840;2022-09-29T11:47:53;10.73;;;5.10;;
18082;SDS011;9168;51.194;6.840;2022-09-29T11:50:46;10.30;;;5.22;;
18082;SDS011;9168;51.194;6.840;2022-09-29T11:53:30;11.93;;;5.13;;
18082;SDS011;9168;51.194;6.840;2022-09-29T11:56:13;13.95;;;5.03;;
18082;SDS011;9168;51.194;6.840;2022-09-29T11:58:56;16.58;;;5.28;;
18082;SDS011;9168;51.194;6.840;2022-09-29T12:01:41;8.10;;;4.18;;
18082;SDS011;9168;51.194;6.840;2022-09-29T12:04:22;8.75;;;4.32;;
18082;SDS011;9168;51.194;6.840;2022-09-29T12:07:04;10.57;;;5.07;;
18082;SDS011;9168;51.194;6.840;2022-09-29T12:09:53;10.95;;;4.47;;
18082;SDS011;9168;51.194;6.840;2022-09-29T12:12:47;12.75;;;4.45;;
18082;SDS011;9168;51.194;6.840;2022-09-29T12:15:21;13.07;;;4.80;;
18082;SDS011;9168;51.194;6.840;2022-09-29T12:17:58;8.98;;;4.60;;
18082;SDS011;9168;51.194;6.840;2022-09-29T12:20:28;8.05;;;4.15;;
18082;SDS011;9168;51.194;6.840;2022-09-29T12:22:59;8.27;;;4.82;;
18082;SDS011;9168;51.194;6.840;2022-09-29T12:25:31;10.55;;;4.28;;
18082;SDS011;9168;51.194;6.840;2022-09-29T12:28:04;7.85;;;3.78;;
18082;SDS011;9168;51.194;6.840;2022-09-29T12:30:40;6.75;;;3.78;;
18082;SDS011;9168;51.194;6.840;2022-09-29T12:33:13;7.25;;;3.40;;
18082;SDS011;9168;51.194;6.840;2022-09-29T12:35:46;5.50;;;3.00;;
18082;SDS011;9168;51.194;6.840;2022-09-29T12:38:18;7.80;;;2.90;;
18082;SDS011;9168;51.194;6.840;2022-09-29T12:40:58;2.63;;;2.10;;
18082;SDS011;9168;51.194;6.840;2022-09-29T12:43:31;5.95;;;2.65;;
18082;SDS011;9168;51.194;6.840;2022-09-29T12:46:08;8.95;;;2.92;;
18082;SDS011;9168;51.194;6.840;2022-09-29T12:48:45;11.85;;;4.45;;
18082;SDS011;9168;51.194;6.840;2022-09-29T12:51:19;10.20;;;4.00;;
18082;SDS011;9168;51.194;6.840;2022-09-29T12:54:00;11.73;;;4.60;;
18082;SDS011;9168;51.194;6.840;2022-09-29T12:56:35;8.80;;;4.38;;
18082;SDS011;9168;51.194;6.840;2022-09-29T12:59:08;8.43;;;3.83;;
18082;SDS011;9168;51.194;6.840;2022-09-29T13:01:41;11.10;;;3.67;;
18082;SDS011;9168;51.194;6.840;2022-09-29T13:04:28;14.93;;;3.80;;
18082;SDS011;9168;51.194;6.840;2022-09-29T13:07:22;9.05;;;3.40;;
18082;SDS011;9168;51.194;6.840;2022-09-29T13:10:22;6.80;;;2.95;;
18082;SDS011;9168;51.194;6.840;2022-09-29T13:13:18;8.00;;;3.50;;
18082;SDS011;9168;51.194;6.840;2022-09-29T13:16:03;9.75;;;3.33;;
18082;SDS011;9168;51.194;6.840;2022-09-29T13:21:48;9.85;;;3.53;;
18082;SDS011;9168;51.194;6.840;2022-09-29T13:24:30;8.43;;;3.75;;
18082;SDS011;9168;51.194;6.840;2022-09-29T13:27:11;8.05;;;3.60;;
18082;SDS011;9168;51.194;6.840;2022-09-29T13:29:51;9.32;;;4.15;;
18082;SDS011;9168;51.194;6.840;2022-09-29T13:32:22;8.10;;;3.85;;
18082;SDS011;9168;51.194;6.840;2022-09-29T13:34:51;9.23;;;3.72;;
18082;SDS011;9168;51.194;6.840;2022-09-29T13:37:20;9.60;;;4.10;;
18082;SDS011;9168;51.194;6.840;2022-09-29T13:39:51;9.25;;;4.38;;
18082;SDS011;9168;51.194;6.840;2022-09-29T13:45:15;9.85;;;4.25;;
18082;SDS011;9168;51.194;6.840;2022-09-29T13:48:00;8.40;;;4.25;;
18082;SDS011;9168;51.194;6.840;2022-09-29T13:50:48;10.48;;;4.50;;
18082;SDS011;9168;51.194;6.840;2022-09-29T13:53:26;11.30;;;4.35;;
18082;SDS011;9168;51.194;6.840;2022-09-29T13:56:08;10.05;;;4.68;;
18082;SDS011;9168;51.194;6.840;2022-09-29T13:58:37;9.60;;;3.80;;
18082;SDS011;9168;51.194;6.840;2022-09-29T14:01:28;7.85;;;4.07;;
18082;SDS011;9168;51.194;6.840;2022-09-29T14:04:19;10.93;;;3.90;;
18082;SDS011;9168;51.194;6.840;2022-09-29T14:07:12;13.00;;;4.15;;
18082;SDS011;9168;51.194;6.840;2022-09-29T14:09:41;11.93;;;4.18;;
18082;SDS011;9168;51.194;6.840;2022-09-29T14:12:15;9.77;;;3.90;;
18082;SDS011;9168;51.194;6.840;2022-09-29T14:14:45;13.82;;;3.47;;
18082;SDS011;9168;51.194;6.840;2022-09-29T14:17:18;10.23;;;3.13;;
18082;SDS011;9168;51.194;6.840;2022-09-29T14:19:53;7.85;;;3.30;;
18082;SDS011;9168;51.194;6.840;2022-09-29T14:25:31;7.70;;;2.90;;
18082;SDS011;9168;51.194;6.840;2022-09-29T14:28:15;6.53;;;2.90;;
18082;SDS011;9168;51.194;6.840;2022-09-29T14:30:46;7.55;;;2.38;;
18082;SDS011;9168;51.194;6.840;2022-09-29T14:33:18;8.68;;;2.80;;
18082;SDS011;9168;51.194;6.840;2022-09-29T14:35:52;6.50;;;2.70;;
18082;SDS011;9168;51.194;6.840;2022-09-29T14:38:27;9.35;;;2.63;;
18082;SDS011;9168;51.194;6.840;2022-09-29T14:40:59;7.15;;;2.50;;
18082;SDS011;9168;51.194;6.840;2022-09-29T14:43:34;7.50;;;2.13;;
18082;SDS011;9168;51.194;6.840;2022-09-29T14:46:10;4.22;;;1.90;;
18082;SDS011;9168;51.194;6.840;2022-09-29T14:49:30;8.20;;;1.80;;
18082;SDS011;9168;51.194;6.840;2022-09-29T14:52:50;4.75;;;2.30;;
18082;SDS011;9168;51.194;6.840;2022-09-29T14:55:29;10.27;;;1.75;;
18082;SDS011;9168;51.194;6.840;2022-09-29T14:58:09;5.32;;;1.92;;
18082;SDS011;9168;51.194;6.840;2022-09-29T15:00:51;7.82;;;2.05;;
18082;SDS011;9168;51.194;6.840;2022-09-29T15:03:25;7.38;;;2.22;;
18082;SDS011;9168;51.194;6.840;2022-09-29T15:06:05;11.30;;;1.95;;
18082;SDS011;9168;51.194;6.840;2022-09-29T15:08:38;4.40;;;2.10;;
18082;SDS011;9168;51.194;6.840;2022-09-29T15:13:49;5.43;;;2.28;;
18082;SDS011;9168;51.194;6.840;2022-09-29T15:16:17;9.00;;;2.38;;
18082;SDS011;9168;51.194;6.840;2022-09-29T15:18:55;10.52;;;2.55;;
18082;SDS011;9168;51.194;6.840;2022-09-29T15:21:35;7.50;;;2.25;;
18082;SDS011;9168;51.194;6.840;2022-09-29T15:24:15;5.22;;;1.73;;
18082;SDS011;9168;51.194;6.840;2022-09-29T15:26:59;5.22;;;1.95;;
18082;SDS011;9168;51.194;6.840;2022-09-29T15:29:27;8.02;;;2.10;;
18082;SDS011;9168;51.194;6.840;2022-09-29T15:31:55;7.00;;;2.17;;
18082;SDS011;9168;51.194;6.840;2022-09-29T15:34:22;7.00;;;2.22;;
18082;SDS011;9168;51.194;6.840;2022-09-29T15:36:51;4.75;;;2.03;;
18082;SDS011;9168;51.194;6.840;2022-09-29T15:42:17;4.88;;;2.20;;
18082;SDS011;9168;51.194;6.840;2022-09-29T15:44:51;6.18;;;1.80;;
18082;SDS011;9168;51.194;6.840;2022-09-29T15:47:26;7.55;;;2.00;;